Kisumu, Kenya

8:01 AM EAT on February 27, 2017 (GMT +0300)
Kisumu | | Change Station

Elev 3760 ft 0.10 °S, 34.75 °E | Updated 1 hour ago

Partly Cloudy
Partly Cloudy
66 °F
Feels Like 66 °F
N
4
Wind Variable Wind from NE

Today
High -- | Low -- °F
--% Chance of Precip.
Yesterday
High -- | Low -- °F
Precip. -- in
Pressure 30.01 in
Visibility 6.2 miles
Clouds Few 1900 ft
Scattered Clouds 8000 ft
Dew Point 66 °F
Humidity 100%
Rainfall 0.00 in
Snow Depth Not available.
6:50 AM 6:57 PM
New Moon, 0% visible
METAR HKKI 270400Z 04003KT 9999 FEW019 SCT080 19/19 Q1016
Pressure 30.01 in
Visibility 6.2 miles
Clouds Few 1900 ft
Scattered Clouds 8000 ft
Dew Point 66 °F
Humidity 100%
Rainfall 0.00 in
Snow Depth Not available.
6:50 AM 6:57 PM
New Moon, 0% visible
METAR HKKI 270400Z 04003KT 9999 FEW019 SCT080 19/19 Q1016

Get Your Daily Forecast Email!

Thanks for signing up!

Be on the lookout for a verification email in your inbox.

You'll start receiving the daily forecast at 8 AM.

×

10-Day Weather Forecast

No radar image for this location.
×

Almanac

Astronomy

Feb. 27, 2017 Rise Set
Actual Time
Civil Twilight
Nautical Twilight
Astronomical Twilight
Moon
Length of Visible Light
Length of Day
Tomorrow will be .
, % of the Moon is Illuminated

Today's Extremes

Country Highs Country Lows

Community

WunderPhotos

Upload Photos

1,962,540 photos uploaded!

WunderBlog® & News

Nearby

Air Quality

  Air Quality AQ Index Pollutant
Not available.

Snow Depth

Station Depth Elevation

Earthquake Activity

City Distance Mag. Time & Date
Minimum magnitude displayed is 2.5.

Coastal Water Temperatures

Place Temperature

Stations

Nearby Weather Stations

Station Location Temp. Windchill Dew Point Humidity Wind Precip. Elev Updated Type